Time;durP1;ratioP1;P1;durP2;ratioP2;P2;SDS_P1;SDS_P2;PMS_P1;PMS_P2;Temp;Humidity;BMP_temperature;BMP_pressure;BME280_temperature;BME280_humidity;BME280_pressure;Samples;Min_cycle;Max_cycle;Signal;HPM_P1;HPM_P2
2021/07/24 07:30:39;;;;;;;0.00;0.00;;;36.40;45.90;;;;;;5168604;27;20391;-91
2021/07/24 07:33:05;;;;;;;0.00;0.00;;;36.30;48.20;;;;;;5135291;27;20388;-92
2021/07/24 07:35:38;;;;;;;0.00;0.00;;;36.60;47.20;;;;;;5134956;28;20114;-91
2021/07/24 07:38:25;;;;;;;0.00;0.00;;;36.90;46.80;;;;;;5132320;28;20072;-91
2021/07/24 07:40:51;;;;;;;0.10;0.10;;;37.40;43.70;;;;;;5132694;28;20580;-90
2021/07/24 07:43:17;;;;;;;0.00;0.00;;;37.70;45.40;;;;;;5130930;28;20047;-90
2021/07/24 07:45:43;;;;;;;0.10;0.10;;;38.00;45.00;;;;;;5131731;28;20036;-91
2021/07/24 07:48:08;;;;;;;0.10;0.10;;;38.30;44.40;;;;;;5130397;28;20012;-91
2021/07/24 07:50:44;;;;;;;0.00;0.00;;;38.40;43.80;;;;;;5129755;28;20030;-91
2021/07/24 07:53:10;;;;;;;0.10;0.10;;;38.60;43.20;;;;;;5114540;28;20318;-91
2021/07/24 07:55:36;;;;;;;0.10;0.10;;;38.80;43.20;;;;;;5129219;28;20478;-90
2021/07/24 07:58:14;;;;;;;0.10;0.10;;;39.20;43.10;;;;;;5128524;28;20361;-92
2021/07/24 08:00:40;;;;;;;0.10;0.10;;;39.50;41.40;;;;;;5128231;28;20046;-91
2021/07/24 08:03:06;;;;;;;0.10;0.10;;;39.50;42.20;;;;;;5130833;27;20023;-90
2021/07/24 08:05:32;;;;;;;0.10;0.10;;;39.50;41.90;;;;;;5131077;28;20027;-91
2021/07/24 08:07:58;;;;;;;0.00;0.00;;;39.40;41.50;;;;;;5128927;28;20023;-91
2021/07/24 08:10:24;;;;;;;0.10;0.10;;;39.40;41.70;;;;;;5128697;28;20034;-91
2021/07/24 08:12:50;;;;;;;0.10;0.10;;;39.90;41.50;;;;;;5128472;28;20024;-90
2021/07/24 08:15:17;;;;;;;0.10;0.10;;;40.20;40.90;;;;;;5128743;28;20016;-91
2021/07/24 08:17:42;;;;;;;0.10;0.10;;;40.40;40.60;;;;;;5129487;28;20031;-91
2021/07/24 08:20:09;;;;;;;0.10;0.10;;;40.50;40.30;;;;;;5129555;28;20396;-90
2021/07/24 08:22:36;;;;;;;0.10;0.10;;;40.70;40.10;;;;;;5132140;28;20042;-91
2021/07/24 08:25:02;;;;;;;0.10;0.10;;;40.90;39.60;;;;;;5129913;28;20100;-90
2021/07/24 08:27:28;;;;;;;0.08;0.08;;;40.90;39.50;;;;;;5130292;28;20038;-91
2021/07/24 08:29:54;;;;;;;0.10;0.10;;;40.80;38.80;;;;;;5130348;28;20027;-91
2021/07/24 08:32:20;;;;;;;0.10;0.10;;;40.60;38.50;;;;;;5130156;28;20426;-90
2021/07/24 08:34:52;;;;;;;0.00;0.00;;;40.80;38.50;;;;;;5131149;28;20030;-90
2021/07/24 08:37:18;;;;;;;;;;;40.90;38.20;;;;;;5131542;27;20036;-90
2021/07/24 08:39:44;;;;;;;0.10;0.10;;;41.00;36.90;;;;;;5131000;28;20322;-91
2021/07/24 08:42:27;;;;;;;0.10;0.10;;;41.40;38.50;;;;;;5115817;28;20028;-91
2021/07/24 08:45:03;;;;;;;0.10;0.10;;;42.10;36.40;;;;;;5117155;28;20028;-90
2021/07/24 08:47:35;;;;;;;0.10;0.10;;;42.40;37.50;;;;;;5116340;28;20452;-91
2021/07/24 08:50:08;;;;;;;0.10;0.10;;;42.50;37.20;;;;;;5115887;28;20024;-90
2021/07/24 08:52:35;;;;;;;0.10;0.10;;;42.60;37.00;;;;;;5117292;28;20034;-88
2021/07/24 08:55:21;;;;;;;0.10;0.10;;;42.70;36.70;;;;;;5116118;28;20034;-91
2021/07/24 08:57:52;;;;;;;0.10;0.10;;;42.90;35.60;;;;;;5114333;28;20637;-90
2021/07/24 09:00:36;;;;;;;0.10;0.10;;;43.00;36.50;;;;;;5115530;28;20040;-90
2021/07/24 09:03:02;;;;;;;0.10;0.10;;;42.90;35.80;;;;;;5116050;28;20031;-90
2021/07/24 09:05:32;;;;;;;0.10;0.10;;;42.80;36.30;;;;;;5115735;28;20045;-90
2021/07/24 09:08:02;;;;;;;0.10;0.10;;;42.90;36.30;;;;;;5116056;28;20084;-90
2021/07/24 09:10:28;;;;;;;0.10;0.10;;;42.90;36.00;;;;;;5115922;28;20404;-90
2021/07/24 09:12:56;;;;;;;0.10;0.10;;;43.00;36.20;;;;;;5115808;28;20028;-90
2021/07/24 09:15:22;;;;;;;0.10;0.10;;;43.10;36.10;;;;;;5115797;28;20086;-91
2021/07/24 09:17:48;;;;;;;0.10;0.10;;;43.20;36.10;;;;;;5116422;28;20392;-90
2021/07/24 09:20:14;;;;;;;0.10;0.10;;;43.20;36.10;;;;;;5115310;28;20543;-90
2021/07/24 09:22:41;;;;;;;0.10;0.10;;;43.50;35.90;;;;;;5114918;28;20411;-91
2021/07/24 09:25:25;;;;;;;0.20;0.20;;;43.50;35.90;;;;;;5115571;28;20020;-90
2021/07/24 09:27:53;;;;;;;0.10;0.10;;;43.50;36.60;;;;;;5116237;28;20027;-89
2021/07/24 09:30:34;;;;;;;0.15;0.15;;;43.70;35.80;;;;;;5115507;28;20036;-90
2021/07/24 09:33:07;;;;;;;0.20;0.20;;;43.80;35.10;;;;;;5114598;28;20043;-90
2021/07/24 09:35:55;;;;;;;0.10;0.10;;;44.00;35.50;;;;;;5116867;28;20027;-90
2021/07/24 09:38:32;;;;;;;0.20;0.20;;;44.20;35.50;;;;;;5115049;28;20035;-91
2021/07/24 09:41:01;;;;;;;0.10;0.10;;;44.10;35.30;;;;;;5115041;28;20038;-92
2021/07/24 09:43:33;;;;;;;0.10;0.10;;;44.20;35.40;;;;;;5115378;28;20031;-91
2021/07/24 09:46:12;;;;;;;0.10;0.10;;;43.90;34.90;;;;;;5116532;28;20031;-91
2021/07/24 09:48:38;;;;;;;0.10;0.10;;;43.60;34.80;;;;;;5116208;28;20036;-89
2021/07/24 09:51:04;;;;;;;0.20;0.20;;;43.60;35.50;;;;;;5116233;28;20024;-91
2021/07/24 09:53:40;;;;;;;0.10;0.10;;;43.70;35.70;;;;;;5114626;28;20134;-90
2021/07/24 09:56:11;;;;;;;0.20;0.20;;;44.00;35.40;;;;;;5114616;28;20114;-91
2021/07/24 09:58:38;;;;;;;0.15;0.15;;;44.40;35.30;;;;;;5114736;28;20039;-90
2021/07/24 10:01:09;;;;;;;0.20;0.20;;;44.40;35.00;;;;;;5123873;28;20046;-89
2021/07/24 10:03:37;;;;;;;0.10;0.10;;;44.40;34.60;;;;;;5124465;28;20028;-87
2021/07/24 10:06:16;;;;;;;0.20;0.20;;;44.50;34.60;;;;;;5114130;28;20023;-89
2021/07/24 10:08:48;;;;;;;0.20;0.20;;;44.90;33.10;;;;;;5114026;28;20036;-89
2021/07/24 10:11:13;;;;;;;;;;;44.80;33.90;;;;;;5114353;28;20111;-91
2021/07/24 10:13:42;;;;;;;0.10;0.10;;;44.60;33.70;;;;;;5114484;28;19966;-90
2021/07/24 10:16:08;;;;;;;0.10;0.10;;;45.00;34.40;;;;;;5114373;28;20024;-91
2021/07/24 10:18:35;;;;;;;0.10;0.10;;;45.10;33.90;;;;;;5113975;28;20035;-91
2021/07/24 10:21:02;;;;;;;0.10;0.10;;;44.40;33.80;;;;;;5114163;28;20137;-91
2021/07/24 10:23:28;;;;;;;0.10;0.10;;;43.20;34.10;;;;;;5113983;28;20055;-91
2021/07/24 10:26:13;;;;;;;0.10;0.10;;;42.00;34.70;;;;;;5114477;28;20024;-90
2021/07/24 10:29:07;;;;;;;0.00;0.00;;;40.70;35.60;;;;;;5114461;28;20392;-91
2021/07/24 10:31:42;;;;;;;0.03;0.03;;;40.50;36.40;;;;;;5115432;28;20023;-90
2021/07/24 10:34:11;;;;;;;0.00;0.00;;;40.20;36.30;;;;;;5114961;28;20024;-92
2021/07/24 10:36:39;;;;;;;0.00;0.00;;;39.70;36.40;;;;;;5115168;28;20515;-91
2021/07/24 10:39:11;;;;;;;0.00;0.00;;;39.00;36.80;;;;;;5114474;28;20040;-90
2021/07/24 10:41:36;;;;;;;0.00;0.00;;;38.30;37.30;;;;;;5114410;28;20104;-91
2021/07/24 10:44:13;;;;;;;0.00;0.00;;;38.20;38.20;;;;;;5116279;28;20272;-90
2021/07/24 10:46:45;;;;;;;0.00;0.00;;;38.60;37.90;;;;;;5114862;28;20027;-90
2021/07/24 10:49:23;;;;;;;0.00;0.00;;;38.40;37.70;;;;;;5115861;28;20480;-91
2021/07/24 10:51:56;;;;;;;0.10;0.10;;;38.50;37.70;;;;;;5114444;28;20028;-89
2021/07/24 10:54:22;;;;;;;0.10;0.10;;;39.20;37.50;;;;;;5114846;28;20024;-89
2021/07/24 10:56:48;;;;;;;0.10;0.10;;;40.10;36.70;;;;;;5113817;28;20020;-91
2021/07/24 10:59:17;;;;;;;0.10;0.10;;;41.00;36.70;;;;;;5128145;28;20087;-90
2021/07/24 11:01:47;;;;;;;0.10;0.10;;;41.80;36.10;;;;;;5125151;28;20541;-91
2021/07/24 11:04:35;;;;;;;0.10;0.10;;;42.50;35.60;;;;;;5114433;28;20028;-91
2021/07/24 11:07:13;;;;;;;0.05;0.05;;;42.90;34.30;;;;;;5114591;28;20023;-91
2021/07/24 11:09:43;;;;;;;0.03;0.03;;;42.60;34.40;;;;;;5120533;28;20463;-90
2021/07/24 11:12:16;;;;;;;0.00;0.00;;;41.90;34.80;;;;;;5122693;28;20030;-91
2021/07/24 11:14:49;;;;;;;0.10;0.10;;;40.80;35.10;;;;;;5114822;28;20077;-91
2021/07/24 11:17:16;;;;;;;0.00;0.00;;;39.70;35.70;;;;;;5114791;28;20024;-90
2021/07/24 11:19:43;;;;;;;0.00;0.00;;;38.60;36.00;;;;;;5114563;28;20063;-91
2021/07/24 11:22:19;;;;;;;0.00;0.00;;;37.30;36.70;;;;;;5114071;28;20400;-90
2021/07/24 11:24:51;;;;;;;0.00;0.00;;;36.60;37.50;;;;;;5113799;28;20032;-91
2021/07/24 11:27:28;;;;;;;0.00;0.00;;;35.70;38.00;;;;;;5114277;28;20507;-91
2021/07/24 11:29:54;;;;;;;0.00;0.00;;;35.00;38.60;;;;;;5114308;28;20034;-90
2021/07/24 11:32:28;;;;;;;0.00;0.00;;;34.50;39.00;;;;;;5123578;28;20027;-90
2021/07/24 11:35:05;;;;;;;0.00;0.00;;;34.00;40.00;;;;;;5135592;28;20029;-87
2021/07/24 11:37:42;;;;;;;0.00;0.00;;;33.60;40.30;;;;;;5119690;28;20035;-90
2021/07/24 11:40:12;;;;;;;0.00;0.00;;;33.40;40.50;;;;;;5115261;28;20031;-90
2021/07/24 11:42:39;;;;;;;0.00;0.00;;;33.20;40.80;;;;;;5118351;28;20031;-91
2021/07/24 11:45:05;;;;;;;0.00;0.00;;;33.20;41.30;;;;;;5114943;28;20548;-91
2021/07/24 11:47:31;;;;;;;0.00;0.00;;;33.50;41.60;;;;;;5113586;28;20066;-90
2021/07/24 11:50:16;;;;;;;0.00;0.00;;;34.30;41.70;;;;;;5116044;28;20032;-90
2021/07/24 11:52:42;;;;;;;0.00;0.00;;;35.20;40.90;;;;;;5114759;28;20042;-90
2021/07/24 11:55:11;;;;;;;0.00;0.00;;;35.40;40.30;;;;;;5116209;28;20024;-90
2021/07/24 11:57:38;;;;;;;0.00;0.00;;;35.40;40.30;;;;;;5114816;28;20051;-91
2021/07/24 12:00:04;;;;;;;0.10;0.10;;;35.40;40.00;;;;;;5115219;28;20058;-90
2021/07/24 12:02:30;;;;;;;0.00;0.00;;;35.80;40.30;;;;;;5114427;28;20020;-90
2021/07/24 12:04:55;;;;;;;0.00;0.00;;;36.60;40.00;;;;;;5114268;28;20369;-90
2021/07/24 12:07:23;;;;;;;0.00;0.00;;;37.20;39.20;;;;;;5114936;28;20035;-91
2021/07/24 12:09:51;;;;;;;0.00;0.00;;;37.30;38.70;;;;;;5113001;28;20028;-90
2021/07/24 12:12:23;;;;;;;0.00;0.00;;;37.40;38.80;;;;;;5112895;28;20481;-91
2021/07/24 12:14:58;;;;;;;0.00;0.00;;;37.70;39.20;;;;;;5123696;28;20011;-91
2021/07/24 12:17:27;;;;;;;0.00;0.00;;;38.30;38.00;;;;;;5117680;28;20024;-91
2021/07/24 12:19:53;;;;;;;0.03;0.03;;;38.90;38.20;;;;;;5118456;28;20052;-91
2021/07/24 12:22:21;;;;;;;0.00;0.00;;;39.40;37.50;;;;;;5121791;28;20115;-90
2021/07/24 12:24:48;;;;;;;0.00;0.00;;;39.20;37.20;;;;;;5117196;28;20030;-90
2021/07/24 12:27:17;;;;;;;0.00;0.00;;;38.70;37.20;;;;;;5118481;28;20472;-90
2021/07/24 12:29:47;;;;;;;0.00;0.00;;;38.10;37.30;;;;;;5117865;28;20039;-90
2021/07/24 12:32:12;;;;;;;0.00;0.00;;;37.30;37.80;;;;;;5116913;28;20464;-91
2021/07/24 12:34:38;;;;;;;0.00;0.00;;;36.60;38.30;;;;;;5117601;28;20114;-91
2021/07/24 12:37:04;;;;;;;0.00;0.00;;;35.90;38.90;;;;;;5117167;28;20114;-91
2021/07/24 12:39:37;;;;;;;0.00;0.00;;;35.20;39.30;;;;;;5118812;28;20042;-90
2021/07/24 12:42:07;;;;;;;0.00;0.00;;;34.60;39.90;;;;;;5119165;28;20024;-90
2021/07/24 12:44:51;;;;;;;0.00;0.00;;;34.00;40.30;;;;;;5119335;28;20103;-90
2021/07/24 12:47:18;;;;;;;;;;;33.60;41.40;;;;;;5119398;28;20046;-90
2021/07/24 12:49:49;;;;;;;0.00;0.00;;;33.40;41.40;;;;;;5119096;28;19904;-90
2021/07/24 12:52:41;;;;;;;0.00;0.00;;;33.60;41.30;;;;;;5118117;28;20035;-90
2021/07/24 12:55:14;;;;;;;0.00;0.00;;;34.00;41.40;;;;;;5120071;28;20526;-91
2021/07/24 12:57:48;;;;;;;0.00;0.00;;;34.30;41.00;;;;;;5107253;22;20086;-91
2021/07/24 13:00:18;;;;;;;0.00;0.00;;;34.50;40.80;;;;;;5075323;28;20294;-89
2021/07/24 13:02:44;;;;;;;0.00;0.00;;;34.30;40.60;;;;;;5060670;28;20048;-90
2021/07/24 13:05:12;;;;;;;0.00;0.00;;;34.10;40.70;;;;;;5054516;28;20021;-90
2021/07/24 13:07:42;;;;;;;0.00;0.00;;;33.90;40.80;;;;;;5054370;28;20037;-89
2021/07/24 13:10:12;;;;;;;0.00;0.00;;;33.70;41.00;;;;;;5054544;28;20021;-90
2021/07/24 13:12:39;;;;;;;0.00;0.00;;;33.50;41.30;;;;;;5055387;28;20033;-90
2021/07/24 13:15:06;;;;;;;0.00;0.00;;;33.40;41.50;;;;;;5056575;28;20021;-89
2021/07/24 13:17:32;;;;;;;0.00;0.00;;;33.40;41.80;;;;;;5054557;28;20481;-89
2021/07/24 13:19:58;;;;;;;0.00;0.00;;;33.60;41.60;;;;;;5054382;28;20124;-90
2021/07/24 13:22:27;;;;;;;0.00;0.00;;;33.70;41.30;;;;;;5056455;28;20079;-90
2021/07/24 13:25:08;;;;;;;0.00;0.00;;;33.60;41.20;;;;;;5055731;28;20025;-90
2021/07/24 13:30:19;;;;;;;0.00;0.00;;;33.10;41.60;;;;;;5055650;28;20505;-89
2021/07/24 13:32:46;;;;;;;0.00;0.00;;;32.80;42.50;;;;;;5054709;28;20029;-90
2021/07/24 13:35:13;;;;;;;0.00;0.00;;;32.60;42.30;;;;;;5054559;28;20028;-90
2021/07/24 13:37:40;;;;;;;0.00;0.00;;;32.80;42.70;;;;;;5054884;28;20474;-90
2021/07/24 13:40:07;;;;;;;0.00;0.00;;;33.30;43.00;;;;;;5054729;28;20543;-90
2021/07/24 13:42:33;;;;;;;0.00;0.00;;;33.20;42.00;;;;;;5055138;28;20039;-89
2021/07/24 13:44:59;;;;;;;0.00;0.00;;;33.10;41.90;;;;;;5055480;28;20028;-89
2021/07/24 13:47:25;;;;;;;0.00;0.00;;;32.90;41.90;;;;;;5055927;28;20029;-90
2021/07/24 13:49:50;;;;;;;0.00;0.00;;;32.80;42.20;;;;;;5053730;28;20025;-90
2021/07/24 13:52:17;;;;;;;0.00;0.00;;;33.00;42.20;;;;;;5053808;28;20470;-90
2021/07/24 13:54:43;;;;;;;0.00;0.00;;;33.60;41.80;;;;;;5053714;28;20048;-90
2021/07/24 13:57:09;;;;;;;0.00;0.00;;;34.20;41.60;;;;;;5055140;28;20041;-90
2021/07/24 13:59:34;;;;;;;0.00;0.00;;;34.80;40.80;;;;;;5053761;28;20044;-90
2021/07/24 14:02:00;;;;;;;0.00;0.00;;;35.10;40.60;;;;;;5053946;28;20065;-90
2021/07/24 14:04:25;;;;;;;0.00;0.00;;;35.40;40.40;;;;;;5059681;28;20086;-91
2021/07/24 14:06:52;;;;;;;0.00;0.00;;;35.30;40.10;;;;;;5054464;28;20037;-91
2021/07/24 14:09:18;;;;;;;0.00;0.00;;;35.20;40.20;;;;;;5056947;28;20028;-92
2021/07/24 14:11:56;;;;;;;0.00;0.00;;;35.10;40.10;;;;;;5053540;28;20029;-91
2021/07/24 14:14:27;;;;;;;0.00;0.00;;;34.90;40.30;;;;;;5055198;28;20033;-92
2021/07/24 14:16:55;;;;;;;0.00;0.00;;;34.80;40.50;;;;;;5057658;28;20021;-93
2021/07/24 14:19:36;;;;;;;0.00;0.00;;;34.40;40.20;;;;;;5055015;28;20045;-94
2021/07/24 14:22:03;;;;;;;0.00;0.00;;;33.90;40.40;;;;;;5054374;28;20466;-91
2021/07/24 14:24:29;;;;;;;0.00;0.00;;;33.60;40.30;;;;;;5053399;28;20399;-93
2021/07/24 14:26:55;;;;;;;0.00;0.00;;;33.30;40.50;;;;;;5073044;28;20124;-91
2021/07/24 14:29:21;;;;;;;0.00;0.00;;;33.00;40.80;;;;;;5055840;28;20041;-91
2021/07/24 14:31:46;;;;;;;0.00;0.00;;;32.80;41.10;;;;;;5055314;28;20034;-91
2021/07/24 14:34:12;;;;;;;0.00;0.00;;;32.60;41.30;;;;;;5055290;28;20397;-91
2021/07/24 14:36:38;;;;;;;0.00;0.00;;;32.50;41.40;;;;;;5055600;28;20030;-89
2021/07/24 14:39:04;;;;;;;0.00;0.00;;;32.30;41.60;;;;;;5054780;28;20063;-91
2021/07/24 14:41:29;;;;;;;0.00;0.00;;;32.10;41.80;;;;;;5055608;28;20052;-91
2021/07/24 14:43:55;;;;;;;0.00;0.00;;;31.90;42.00;;;;;;5074405;28;20013;-91
2021/07/24 14:46:21;;;;;;;0.00;0.00;;;31.90;42.20;;;;;;5062773;28;20061;-91
2021/07/24 14:48:47;;;;;;;0.00;0.00;;;31.60;42.30;;;;;;5056091;28;20052;-92
2021/07/24 14:51:18;;;;;;;0.00;0.00;;;31.50;42.40;;;;;;5056574;28;20092;-90
2021/07/24 14:53:44;;;;;;;0.00;0.00;;;31.30;42.80;;;;;;5055767;28;20048;-91
2021/07/24 14:56:28;;;;;;;0.00;0.00;;;31.20;43.10;;;;;;5055384;28;20024;-91
2021/07/24 14:58:54;;;;;;;0.00;0.00;;;31.20;43.30;;;;;;5055318;28;20057;-90
2021/07/24 15:01:20;;;;;;;0.00;0.00;;;31.00;43.90;;;;;;5055351;28;20571;-91
2021/07/24 15:03:46;;;;;;;0.00;0.00;;;31.00;43.30;;;;;;5035732;28;20037;-91
2021/07/24 15:06:13;;;;;;;0.00;0.00;;;30.90;43.20;;;;;;5052829;28;20083;-91
2021/07/24 15:08:43;;;;;;;0.00;0.00;;;30.70;43.40;;;;;;5056958;28;20052;-91
2021/07/24 15:11:11;;;;;;;0.00;0.00;;;30.50;43.60;;;;;;5052518;28;20393;-91
2021/07/24 15:13:37;;;;;;;0.00;0.00;;;30.40;44.00;;;;;;5053949;28;20091;-91
2021/07/24 15:16:07;;;;;;;0.00;0.00;;;30.30;44.20;;;;;;5052848;28;20040;-92
2021/07/24 15:18:33;;;;;;;0.00;0.00;;;30.30;44.30;;;;;;5052481;28;20512;-90
2021/07/24 15:20:59;;;;;;;0.00;0.00;;;30.20;44.40;;;;;;5052088;28;20119;-90
2021/07/24 15:23:24;;;;;;;0.00;0.00;;;30.20;44.50;;;;;;5052039;28;20470;-91
2021/07/24 15:25:50;;;;;;;0.00;0.00;;;30.20;44.50;;;;;;5052017;28;20029;-91
2021/07/24 15:28:16;;;;;;;0.00;0.00;;;30.20;44.50;;;;;;5051901;28;20028;-91
2021/07/24 15:30:42;;;;;;;0.00;0.00;;;30.20;44.30;;;;;;5051962;28;20398;-91
2021/07/24 15:33:09;;;;;;;0.00;0.00;;;30.20;44.40;;;;;;5053270;28;20398;-91
2021/07/24 15:35:35;;;;;;;0.00;0.00;;;30.20;44.40;;;;;;5051904;28;20102;-91
2021/07/24 15:38:01;;;;;;;0.00;0.00;;;30.20;44.40;;;;;;5062629;28;20036;-91
2021/07/24 15:42:58;;;;;;;0.00;0.00;;;30.10;44.80;;;;;;5118274;22;20062;-92
2021/07/24 15:45:30;;;;;;;0.00;0.00;;;29.90;44.90;;;;;;5115916;28;20047;-91
2021/07/24 15:47:56;;;;;;;0.00;0.00;;;29.80;45.00;;;;;;5113244;28;20023;-91
2021/07/24 15:50:23;;;;;;;0.00;0.00;;;29.70;45.10;;;;;;5113411;28;20016;-92
2021/07/24 15:52:49;;;;;;;0.00;0.00;;;29.60;45.20;;;;;;5117107;28;20030;-91
2021/07/24 15:55:15;;;;;;;0.00;0.00;;;29.40;45.50;;;;;;5119224;28;20027;-91
2021/07/24 15:57:40;;;;;;;0.00;0.00;;;29.20;45.70;;;;;;5117734;28;20440;-90
2021/07/24 16:00:07;;;;;;;0.00;0.00;;;29.20;45.80;;;;;;5116214;28;20070;-89
2021/07/24 16:02:34;;;;;;;0.00;0.00;;;29.10;45.80;;;;;;5116581;28;20392;-90
2021/07/24 16:05:00;;;;;;;0.00;0.00;;;29.00;46.00;;;;;;5117722;28;20521;-90
2021/07/24 16:07:25;;;;;;;0.00;0.00;;;28.90;46.40;;;;;;5118448;28;20114;-90
2021/07/24 16:09:51;;;;;;;0.00;0.00;;;28.80;46.70;;;;;;5117196;28;20027;-90
2021/07/24 16:12:17;;;;;;;0.00;0.00;;;28.70;46.80;;;;;;5116938;28;20118;-90
2021/07/24 16:14:43;;;;;;;0.00;0.00;;;28.50;46.90;;;;;;5116112;28;20069;-90
2021/07/24 16:17:08;;;;;;;0.00;0.00;;;28.40;47.80;;;;;;5116313;28;20565;-90
2021/07/24 16:19:34;;;;;;;0.00;0.00;;;28.30;47.40;;;;;;5116112;28;20130;-90
2021/07/24 16:22:00;;;;;;;0.00;0.00;;;28.20;47.60;;;;;;5116549;28;20027;-91
2021/07/24 16:24:26;;;;;;;0.00;0.00;;;28.10;47.80;;;;;;5115800;28;20035;-90
2021/07/24 16:26:52;;;;;;;0.00;0.00;;;28.00;48.10;;;;;;5117615;28;20104;-90
2021/07/24 16:29:17;;;;;;;0.00;0.00;;;27.90;48.20;;;;;;5116592;28;20027;-90
2021/07/24 16:31:44;;;;;;;0.00;0.00;;;27.80;48.50;;;;;;5135663;28;20084;-90
2021/07/24 16:34:10;;;;;;;0.00;0.00;;;27.70;48.60;;;;;;5123276;28;20486;-90
2021/07/24 16:36:36;;;;;;;0.00;0.00;;;27.60;48.90;;;;;;5116724;28;20031;-90
2021/07/24 16:39:05;;;;;;;0.00;0.00;;;27.40;49.10;;;;;;5116138;28;20031;-90
2021/07/24 16:41:32;;;;;;;0.00;0.00;;;27.30;49.30;;;;;;5115644;28;20139;-90
2021/07/24 16:43:57;;;;;;;0.00;0.00;;;27.20;49.60;;;;;;5116092;28;20016;-90
2021/07/24 16:46:23;;;;;;;0.00;0.00;;;27.10;49.70;;;;;;5118286;28;20487;-90
2021/07/24 16:48:49;;;;;;;0.05;0.05;;;27.00;49.80;;;;;;5115927;28;20019;-90
2021/07/24 16:51:15;;;;;;;0.00;0.00;;;27.00;50.00;;;;;;5115791;28;20038;-90
2021/07/24 16:53:41;;;;;;;0.00;0.00;;;26.80;50.20;;;;;;5115497;28;20115;-90
2021/07/24 16:56:08;;;;;;;0.00;0.00;;;26.80;50.40;;;;;;5115790;28;20066;-90
2021/07/24 16:58:34;;;;;;;0.00;0.00;;;26.60;50.60;;;;;;5115613;28;20373;-90
2021/07/24 17:01:15;;;;;;;0.00;0.00;;;26.60;50.90;;;;;;5115252;28;20028;-90
2021/07/24 17:03:42;;;;;;;0.00;0.00;;;26.40;51.30;;;;;;5115402;28;20024;-90
2021/07/24 17:06:09;;;;;;;0.00;0.00;;;26.30;51.10;;;;;;5115843;28;20370;-90
2021/07/24 17:08:35;;;;;;;0.00;0.00;;;26.30;51.40;;;;;;5115050;28;20031;-90
2021/07/24 17:11:07;;;;;;;0.00;0.00;;;26.20;51.70;;;;;;5116441;28;20483;-90
2021/07/24 17:13:35;;;;;;;0.00;0.00;;;26.10;52.10;;;;;;5115076;28;20019;-90
2021/07/24 17:16:01;;;;;;;0.00;0.00;;;26.00;52.30;;;;;;5115594;28;20031;-90
2021/07/24 17:18:27;;;;;;;0.00;0.00;;;25.90;52.60;;;;;;5114989;28;20076;-90
2021/07/24 17:20:52;;;;;;;0.00;0.00;;;25.80;52.90;;;;;;5114968;28;20043;-90
2021/07/24 17:23:18;;;;;;;0.00;0.00;;;25.80;53.30;;;;;;5115416;28;20484;-90
2021/07/24 17:25:44;;;;;;;0.00;0.00;;;25.60;53.60;;;;;;5115574;28;20046;-90
2021/07/24 17:28:10;;;;;;;0.00;0.00;;;25.60;53.90;;;;;;5136077;28;20035;-90
2021/07/24 17:30:35;;;;;;;0.00;0.00;;;25.50;54.10;;;;;;5120831;28;20036;-90
2021/07/24 17:33:01;;;;;;;0.00;0.00;;;25.40;54.40;;;;;;5114728;28;20058;-90
2021/07/24 17:35:27;;;;;;;0.00;0.00;;;25.30;54.60;;;;;;5114968;28;20019;-90
2021/07/24 17:37:53;;;;;;;0.00;0.00;;;25.20;54.90;;;;;;5114675;28;20114;-90
2021/07/24 17:40:18;;;;;;;0.00;0.00;;;25.10;55.10;;;;;;5114444;28;20049;-90
2021/07/24 17:42:46;;;;;;;0.00;0.00;;;25.00;55.30;;;;;;5115839;28;20027;-90
2021/07/24 17:45:12;;;;;;;0.00;0.00;;;24.90;55.70;;;;;;5116002;28;20542;-90
2021/07/24 17:47:37;;;;;;;0.05;0.05;;;24.80;56.10;;;;;;5114597;28;20468;-90
2021/07/24 17:50:04;;;;;;;0.05;0.05;;;24.70;56.50;;;;;;5114294;28;20106;-90
2021/07/24 17:52:29;;;;;;;0.10;0.10;;;24.60;56.80;;;;;;5114477;28;20488;-90
2021/07/24 17:54:55;;;;;;;0.00;0.00;;;24.50;57.10;;;;;;5114302;28;20030;-90
2021/07/24 17:57:21;;;;;;;0.00;0.00;;;24.40;57.40;;;;;;5114244;28;20537;-90
2021/07/24 17:59:46;;;;;;;0.00;0.00;;;24.30;57.70;;;;;;5114367;28;20047;-90
2021/07/24 18:02:12;;;;;;;0.00;0.00;;;24.30;58.00;;;;;;5114851;28;20381;-90
2021/07/24 18:04:38;;;;;;;0.10;0.10;;;24.20;58.30;;;;;;5115773;28;20073;-90
2021/07/24 18:07:03;;;;;;;0.00;0.00;;;24.10;58.40;;;;;;5115383;28;20031;-90
2021/07/24 18:09:29;;;;;;;0.00;0.00;;;24.10;58.70;;;;;;5117640;28;20020;-90
2021/07/24 18:11:55;;;;;;;0.00;0.00;;;24.00;58.90;;;;;;5114148;28;20031;-90
2021/07/24 18:14:21;;;;;;;0.00;0.00;;;23.90;59.00;;;;;;5113253;28;20015;-90
2021/07/24 18:16:46;;;;;;;0.00;0.00;;;23.90;59.40;;;;;;5113806;28;20032;-90
2021/07/24 18:19:12;;;;;;;0.03;0.00;;;23.80;59.60;;;;;;5115090;28;20055;-90
2021/07/24 18:21:39;;;;;;;0.00;0.00;;;23.70;59.90;;;;;;5113776;28;20066;-90
2021/07/24 18:24:05;;;;;;;0.00;0.00;;;23.70;60.20;;;;;;5113957;28;20058;-90
2021/07/24 18:26:30;;;;;;;0.00;0.00;;;23.60;60.50;;;;;;5113997;28;20030;-90
2021/07/24 18:28:56;;;;;;;0.00;0.00;;;23.60;60.70;;;;;;5113746;28;20024;-90
2021/07/24 18:31:22;;;;;;;0.00;0.00;;;23.50;61.00;;;;;;5113703;28;20028;-90
2021/07/24 18:33:48;;;;;;;0.03;0.03;;;23.40;61.30;;;;;;5113608;28;20388;-90
2021/07/24 18:36:13;;;;;;;0.00;0.00;;;23.30;61.50;;;;;;5114905;28;20384;-90
2021/07/24 18:38:39;;;;;;;0.00;0.00;;;23.30;61.80;;;;;;5114595;28;20024;-90
2021/07/24 18:41:07;;;;;;;0.10;0.10;;;23.20;62.10;;;;;;5114496;28;20039;-90
2021/07/24 18:43:34;;;;;;;0.00;0.00;;;23.20;62.00;;;;;;5114043;28;20455;-90
2021/07/24 18:45:59;;;;;;;0.10;0.10;;;23.10;62.70;;;;;;5118188;28;20031;-90
2021/07/24 18:48:25;;;;;;;0.00;0.00;;;23.10;63.40;;;;;;5114485;28;20093;-90
2021/07/24 18:50:51;;;;;;;0.00;0.00;;;23.00;63.40;;;;;;5114698;28;20028;-90
2021/07/24 18:53:17;;;;;;;0.00;0.00;;;22.90;63.60;;;;;;5114458;28;20027;-90
2021/07/24 18:55:43;;;;;;;0.00;0.00;;;22.90;63.90;;;;;;5114541;28;20357;-90
2021/07/24 18:58:09;;;;;;;0.08;0.08;;;22.80;64.20;;;;;;5115498;28;20480;-90
2021/07/24 19:00:38;;;;;;;0.00;0.00;;;22.70;64.60;;;;;;5114865;28;20082;-91
2021/07/24 19:03:04;;;;;;;0.00;0.00;;;22.60;64.90;;;;;;5113408;28;20383;-90
2021/07/24 19:05:30;;;;;;;0.10;0.10;;;22.60;65.20;;;;;;5113732;28;20035;-91
2021/07/24 19:07:57;;;;;;;0.00;0.00;;;22.50;65.60;;;;;;5113887;28;20024;-90
2021/07/24 19:10:22;;;;;;;0.00;0.00;;;22.50;65.90;;;;;;5114647;28;20019;-90
2021/07/24 19:12:48;;;;;;;0.10;0.10;;;22.40;66.40;;;;;;5113634;28;20035;-90
2021/07/24 19:15:14;;;;;;;0.00;0.00;;;22.30;66.70;;;;;;5113496;28;20362;-90
2021/07/24 19:17:40;;;;;;;0.00;0.00;;;22.30;67.10;;;;;;5117524;28;20057;-90
2021/07/24 19:20:07;;;;;;;0.00;0.00;;;22.20;67.30;;;;;;5121130;28;20499;-90
2021/07/24 19:22:33;;;;;;;0.10;0.10;;;22.20;67.70;;;;;;5114423;28;20028;-90
2021/07/24 19:25:00;;;;;;;0.05;0.05;;;22.10;67.90;;;;;;5113106;28;20034;-90
2021/07/24 19:27:25;;;;;;;0.00;0.00;;;22.10;68.30;;;;;;5113279;28;20028;-91
2021/07/24 19:29:56;;;;;;;0.10;0.10;;;22.10;68.60;;;;;;5113204;28;20468;-91
2021/07/24 19:32:22;;;;;;;0.00;0.00;;;22.00;68.80;;;;;;5112458;28;20039;-90
2021/07/24 19:34:48;;;;;;;0.00;0.00;;;22.00;69.20;;;;;;5112822;28;20019;-90
2021/07/24 19:37:14;;;;;;;0.00;0.00;;;21.90;69.70;;;;;;5112439;28;20035;-91
2021/07/24 19:39:40;;;;;;;0.00;0.00;;;21.80;70.00;;;;;;5112595;28;20043;-91
2021/07/24 19:42:06;;;;;;;0.00;0.00;;;21.80;70.40;;;;;;5112649;28;20087;-91
2021/07/24 19:44:32;;;;;;;0.00;0.00;;;21.80;70.80;;;;;;5112649;28;20016;-91
2021/07/24 19:46:58;;;;;;;0.00;0.00;;;21.70;71.00;;;;;;5114933;28;20032;-91
2021/07/24 19:49:24;;;;;;;0.00;0.00;;;21.70;71.50;;;;;;5112741;28;20123;-90
2021/07/24 19:51:50;;;;;;;0.10;0.10;;;21.70;71.70;;;;;;5112542;28;20070;-90
2021/07/24 19:54:16;;;;;;;0.10;0.10;;;21.60;72.00;;;;;;5112501;28;20051;-90
2021/07/24 19:56:41;;;;;;;0.17;0.10;;;21.60;72.20;;;;;;5112696;28;20077;-91
2021/07/24 19:59:07;;;;;;;0.00;0.00;;;21.60;72.50;;;;;;5112634;28;20032;-90
2021/07/24 20:01:34;;;;;;;0.00;0.00;;;21.50;72.70;;;;;;5117998;28;20041;-90
2021/07/24 20:04:02;;;;;;;0.10;0.10;;;21.50;73.20;;;;;;5118633;28;20515;-91
2021/07/24 20:06:27;;;;;;;0.10;0.10;;;21.40;73.40;;;;;;5112853;28;20085;-91
2021/07/24 20:08:53;;;;;;;0.00;0.00;;;21.40;74.40;;;;;;5112455;28;20480;-90
2021/07/24 20:11:19;;;;;;;0.00;0.00;;;21.40;74.00;;;;;;5112417;28;20035;-90
2021/07/24 20:13:45;;;;;;;0.10;0.10;;;21.30;74.00;;;;;;5112383;28;20541;-90
2021/07/24 20:16:11;;;;;;;0.10;0.10;;;21.30;74.20;;;;;;5112484;28;20032;-91
2021/07/24 20:18:37;;;;;;;0.10;0.10;;;21.20;74.50;;;;;;5112645;28;20024;-90
2021/07/24 20:21:02;;;;;;;0.10;0.10;;;21.20;74.70;;;;;;5112377;28;20511;-91
2021/07/24 20:23:30;;;;;;;0.10;0.10;;;21.10;74.90;;;;;;5112384;28;20534;-90
2021/07/24 20:25:56;;;;;;;0.05;0.05;;;21.10;74.90;;;;;;5112342;28;20038;-91
2021/07/24 20:28:22;;;;;;;0.00;0.00;;;21.10;75.10;;;;;;5112033;28;20110;-91